sensor_id;sensor_type;location;lat;lon;timestamp;P1;durP1;ratioP1;P2;durP2;ratioP2
22549;SDS011;11441;57.164;-2.120;2023-06-24T00:01:04;0.73;;;0.60;;
22549;SDS011;11441;57.164;-2.120;2023-06-24T00:03:31;0.50;;;0.50;;
22549;SDS011;11441;57.164;-2.120;2023-06-24T00:05:58;1.95;;;1.02;;
22549;SDS011;11441;57.164;-2.120;2023-06-24T00:08:29;1.30;;;0.80;;
22549;SDS011;11441;57.164;-2.120;2023-06-24T00:11:01;1.77;;;0.88;;
22549;SDS011;11441;57.164;-2.120;2023-06-24T00:13:29;1.27;;;0.80;;
22549;SDS011;11441;57.164;-2.120;2023-06-24T00:15:56;1.10;;;0.70;;
22549;SDS011;11441;57.164;-2.120;2023-06-24T00:18:23;0.70;;;0.70;;
22549;SDS011;11441;57.164;-2.120;2023-06-24T00:20:50;0.60;;;0.60;;
22549;SDS011;11441;57.164;-2.120;2023-06-24T00:23:19;0.75;;;0.50;;
22549;SDS011;11441;57.164;-2.120;2023-06-24T00:25:51;0.75;;;0.75;;
22549;SDS011;11441;57.164;-2.120;2023-06-24T00:28:18;0.75;;;0.73;;
22549;SDS011;11441;57.164;-2.120;2023-06-24T00:30:49;1.20;;;0.68;;
22549;SDS011;11441;57.164;-2.120;2023-06-24T00:33:16;2.20;;;0.85;;
22549;SDS011;11441;57.164;-2.120;2023-06-24T00:35:45;1.17;;;0.80;;
22549;SDS011;11441;57.164;-2.120;2023-06-24T00:38:14;1.05;;;0.80;;
22549;SDS011;11441;57.164;-2.120;2023-06-24T00:40:41;1.88;;;1.20;;
22549;SDS011;11441;57.164;-2.120;2023-06-24T00:43:08;1.60;;;1.13;;
22549;SDS011;11441;57.164;-2.120;2023-06-24T00:45:36;1.20;;;1.00;;
22549;SDS011;11441;57.164;-2.120;2023-06-24T00:48:03;1.52;;;0.80;;
22549;SDS011;11441;57.164;-2.120;2023-06-24T00:50:31;2.53;;;1.50;;
22549;SDS011;11441;57.164;-2.120;2023-06-24T00:52:58;1.48;;;1.38;;
22549;SDS011;11441;57.164;-2.120;2023-06-24T00:55:25;1.25;;;1.20;;
22549;SDS011;11441;57.164;-2.120;2023-06-24T00:58:14;3.05;;;1.52;;
22549;SDS011;11441;57.164;-2.120;2023-06-24T01:01:01;1.55;;;1.45;;
22549;SDS011;11441;57.164;-2.120;2023-06-24T01:03:29;3.03;;;1.85;;
22549;SDS011;11441;57.164;-2.120;2023-06-24T01:05:57;1.95;;;1.70;;
22549;SDS011;11441;57.164;-2.120;2023-06-24T01:08:24;1.65;;;1.55;;
22549;SDS011;11441;57.164;-2.120;2023-06-24T01:10:51;2.13;;;1.52;;
22549;SDS011;11441;57.164;-2.120;2023-06-24T01:13:18;2.22;;;2.00;;
22549;SDS011;11441;57.164;-2.120;2023-06-24T01:16:06;3.40;;;2.50;;
22549;SDS011;11441;57.164;-2.120;2023-06-24T01:18:59;2.05;;;1.95;;
22549;SDS011;11441;57.164;-2.120;2023-06-24T01:30:43;3.67;;;3.35;;
22549;SDS011;11441;57.164;-2.120;2023-06-24T01:33:09;5.28;;;4.28;;
22549;SDS011;11441;57.164;-2.120;2023-06-24T01:35:39;4.70;;;4.30;;
22549;SDS011;11441;57.164;-2.120;2023-06-24T01:38:09;6.38;;;3.90;;
22549;SDS011;11441;57.164;-2.120;2023-06-24T01:40:44;5.38;;;3.92;;
22549;SDS011;11441;57.164;-2.120;2023-06-24T01:43:52;4.78;;;4.20;;
22549;SDS011;11441;57.164;-2.120;2023-06-24T01:46:22;3.72;;;2.78;;
22549;SDS011;11441;57.164;-2.120;2023-06-24T01:48:50;5.32;;;3.40;;
22549;SDS011;11441;57.164;-2.120;2023-06-24T01:51:21;4.90;;;3.83;;
22549;SDS011;11441;57.164;-2.120;2023-06-24T01:53:54;3.35;;;2.83;;
22549;SDS011;11441;57.164;-2.120;2023-06-24T01:56:25;3.33;;;2.97;;
22549;SDS011;11441;57.164;-2.120;2023-06-24T01:58:55;1.88;;;1.77;;
22549;SDS011;11441;57.164;-2.120;2023-06-24T02:01:25;2.33;;;2.20;;
22549;SDS011;11441;57.164;-2.120;2023-06-24T02:03:52;2.47;;;2.17;;
22549;SDS011;11441;57.164;-2.120;2023-06-24T02:06:22;2.15;;;1.95;;
22549;SDS011;11441;57.164;-2.120;2023-06-24T02:08:52;3.03;;;2.47;;
22549;SDS011;11441;57.164;-2.120;2023-06-24T02:11:22;1.92;;;1.83;;
22549;SDS011;11441;57.164;-2.120;2023-06-24T02:13:50;2.38;;;2.15;;
22549;SDS011;11441;57.164;-2.120;2023-06-24T02:16:20;2.13;;;2.03;;
22549;SDS011;11441;57.164;-2.120;2023-06-24T02:18:48;1.60;;;1.50;;
22549;SDS011;11441;57.164;-2.120;2023-06-24T02:21:17;3.47;;;1.80;;
22549;SDS011;11441;57.164;-2.120;2023-06-24T02:23:46;5.28;;;1.85;;
22549;SDS011;11441;57.164;-2.120;2023-06-24T02:26:14;1.73;;;1.65;;
22549;SDS011;11441;57.164;-2.120;2023-06-24T02:28:43;3.90;;;1.63;;
22549;SDS011;11441;57.164;-2.120;2023-06-24T02:31:12;2.33;;;2.08;;
22549;SDS011;11441;57.164;-2.120;2023-06-24T02:33:41;2.15;;;2.05;;
22549;SDS011;11441;57.164;-2.120;2023-06-24T02:36:10;1.45;;;1.45;;
22549;SDS011;11441;57.164;-2.120;2023-06-24T02:38:38;1.95;;;1.85;;
22549;SDS011;11441;57.164;-2.120;2023-06-24T02:41:05;1.48;;;1.48;;
22549;SDS011;11441;57.164;-2.120;2023-06-24T02:43:32;3.25;;;2.33;;
22549;SDS011;11441;57.164;-2.120;2023-06-24T02:46:00;1.70;;;1.60;;
22549;SDS011;11441;57.164;-2.120;2023-06-24T02:48:29;2.00;;;1.90;;
22549;SDS011;11441;57.164;-2.120;2023-06-24T02:50:59;1.80;;;1.70;;
22549;SDS011;11441;57.164;-2.120;2023-06-24T02:53:28;1.40;;;1.40;;
22549;SDS011;11441;57.164;-2.120;2023-06-24T02:55:57;3.08;;;1.70;;
22549;SDS011;11441;57.164;-2.120;2023-06-24T02:58:25;1.70;;;1.60;;
22549;SDS011;11441;57.164;-2.120;2023-06-24T03:01:04;1.50;;;1.40;;
22549;SDS011;11441;57.164;-2.120;2023-06-24T03:03:55;3.95;;;1.50;;
22549;SDS011;11441;57.164;-2.120;2023-06-24T03:06:23;1.60;;;1.52;;
22549;SDS011;11441;57.164;-2.120;2023-06-24T03:08:54;1.55;;;1.45;;
22549;SDS011;11441;57.164;-2.120;2023-06-24T03:11:22;1.55;;;1.45;;
22549;SDS011;11441;57.164;-2.120;2023-06-24T03:13:49;1.80;;;1.70;;
22549;SDS011;11441;57.164;-2.120;2023-06-24T03:16:21;1.60;;;1.50;;
22549;SDS011;11441;57.164;-2.120;2023-06-24T03:18:55;1.83;;;1.38;;
22549;SDS011;11441;57.164;-2.120;2023-06-24T03:21:22;1.63;;;1.52;;
22549;SDS011;11441;57.164;-2.120;2023-06-24T03:24:01;2.80;;;1.30;;
22549;SDS011;11441;57.164;-2.120;2023-06-24T03:26:31;4.15;;;1.30;;
22549;SDS011;11441;57.164;-2.120;2023-06-24T03:29:00;1.70;;;1.60;;
22549;SDS011;11441;57.164;-2.120;2023-06-24T03:31:28;1.98;;;1.33;;
22549;SDS011;11441;57.164;-2.120;2023-06-24T03:33:55;1.65;;;1.55;;
22549;SDS011;11441;57.164;-2.120;2023-06-24T03:36:24;1.65;;;1.55;;
22549;SDS011;11441;57.164;-2.120;2023-06-24T03:38:51;1.63;;;1.52;;
22549;SDS011;11441;57.164;-2.120;2023-06-24T03:41:19;1.27;;;1.27;;
22549;SDS011;11441;57.164;-2.120;2023-06-24T03:43:48;1.55;;;1.50;;
22549;SDS011;11441;57.164;-2.120;2023-06-24T03:46:15;2.08;;;1.80;;
22549;SDS011;11441;57.164;-2.120;2023-06-24T03:48:42;1.63;;;1.35;;
22549;SDS011;11441;57.164;-2.120;2023-06-24T03:51:11;3.00;;;1.23;;
22549;SDS011;11441;57.164;-2.120;2023-06-24T03:53:57;1.95;;;1.88;;
22549;SDS011;11441;57.164;-2.120;2023-06-24T03:56:26;2.67;;;1.50;;
22549;SDS011;11441;57.164;-2.120;2023-06-24T03:58:53;1.77;;;1.58;;
22549;SDS011;11441;57.164;-2.120;2023-06-24T04:01:20;2.47;;;2.10;;
22549;SDS011;11441;57.164;-2.120;2023-06-24T04:04:05;1.67;;;1.58;;
22549;SDS011;11441;57.164;-2.120;2023-06-24T04:06:32;3.40;;;1.60;;
22549;SDS011;11441;57.164;-2.120;2023-06-24T04:08:59;1.67;;;1.58;;
22549;SDS011;11441;57.164;-2.120;2023-06-24T04:11:26;1.63;;;1.52;;
22549;SDS011;11441;57.164;-2.120;2023-06-24T04:13:53;2.03;;;1.92;;
22549;SDS011;11441;57.164;-2.120;2023-06-24T04:16:20;2.53;;;1.55;;
22549;SDS011;11441;57.164;-2.120;2023-06-24T04:18:47;1.67;;;1.58;;
22549;SDS011;11441;57.164;-2.120;2023-06-24T04:21:14;1.40;;;1.30;;
22549;SDS011;11441;57.164;-2.120;2023-06-24T04:23:41;4.88;;;1.70;;
22549;SDS011;11441;57.164;-2.120;2023-06-24T04:26:08;1.67;;;1.48;;
22549;SDS011;11441;57.164;-2.120;2023-06-24T04:28:35;1.75;;;1.65;;
22549;SDS011;11441;57.164;-2.120;2023-06-24T04:31:03;2.75;;;1.50;;
22549;SDS011;11441;57.164;-2.120;2023-06-24T04:33:30;1.80;;;1.70;;
22549;SDS011;11441;57.164;-2.120;2023-06-24T04:35:57;1.25;;;1.25;;
22549;SDS011;11441;57.164;-2.120;2023-06-24T04:41:12;1.90;;;1.23;;
22549;SDS011;11441;57.164;-2.120;2023-06-24T04:43:39;1.38;;;1.30;;
22549;SDS011;11441;57.164;-2.120;2023-06-24T04:46:06;1.67;;;1.20;;
22549;SDS011;11441;57.164;-2.120;2023-06-24T04:48:33;1.52;;;1.15;;
22549;SDS011;11441;57.164;-2.120;2023-06-24T04:51:00;1.10;;;1.10;;
22549;SDS011;11441;57.164;-2.120;2023-06-24T04:53:27;1.27;;;1.17;;
22549;SDS011;11441;57.164;-2.120;2023-06-24T04:55:54;1.65;;;1.55;;
22549;SDS011;11441;57.164;-2.120;2023-06-24T04:58:20;1.30;;;1.17;;
22549;SDS011;11441;57.164;-2.120;2023-06-24T05:00:47;0.80;;;0.80;;
22549;SDS011;11441;57.164;-2.120;2023-06-24T05:03:14;0.93;;;0.60;;
22549;SDS011;11441;57.164;-2.120;2023-06-24T05:05:41;0.80;;;0.80;;
22549;SDS011;11441;57.164;-2.120;2023-06-24T05:08:09;0.98;;;0.70;;
22549;SDS011;11441;57.164;-2.120;2023-06-24T05:10:36;1.35;;;0.65;;
22549;SDS011;11441;57.164;-2.120;2023-06-24T05:13:02;0.93;;;0.93;;
22549;SDS011;11441;57.164;-2.120;2023-06-24T05:15:29;0.88;;;0.88;;
22549;SDS011;11441;57.164;-2.120;2023-06-24T05:17:56;0.70;;;0.70;;
22549;SDS011;11441;57.164;-2.120;2023-06-24T05:20:23;0.50;;;0.50;;
22549;SDS011;11441;57.164;-2.120;2023-06-24T05:22:50;0.82;;;0.82;;
22549;SDS011;11441;57.164;-2.120;2023-06-24T05:25:36;0.77;;;0.77;;
22549;SDS011;11441;57.164;-2.120;2023-06-24T05:28:03;0.82;;;0.80;;
22549;SDS011;11441;57.164;-2.120;2023-06-24T05:30:30;0.70;;;0.70;;
22549;SDS011;11441;57.164;-2.120;2023-06-24T05:32:57;0.70;;;0.60;;
22549;SDS011;11441;57.164;-2.120;2023-06-24T05:35:24;0.63;;;0.63;;
22549;SDS011;11441;57.164;-2.120;2023-06-24T05:37:51;0.73;;;0.70;;
22549;SDS011;11441;57.164;-2.120;2023-06-24T05:40:17;0.55;;;0.55;;
22549;SDS011;11441;57.164;-2.120;2023-06-24T05:42:44;0.55;;;0.50;;
22549;SDS011;11441;57.164;-2.120;2023-06-24T05:45:11;0.95;;;0.57;;
22549;SDS011;11441;57.164;-2.120;2023-06-24T05:47:38;0.60;;;0.60;;
22549;SDS011;11441;57.164;-2.120;2023-06-24T05:50:05;0.70;;;0.70;;
22549;SDS011;11441;57.164;-2.120;2023-06-24T05:52:32;0.60;;;0.60;;
22549;SDS011;11441;57.164;-2.120;2023-06-24T05:54:59;0.50;;;0.50;;
22549;SDS011;11441;57.164;-2.120;2023-06-24T05:57:26;0.82;;;0.82;;
22549;SDS011;11441;57.164;-2.120;2023-06-24T05:59:53;1.50;;;0.75;;
22549;SDS011;11441;57.164;-2.120;2023-06-24T06:02:20;1.05;;;0.70;;
22549;SDS011;11441;57.164;-2.120;2023-06-24T06:04:47;0.95;;;0.52;;
22549;SDS011;11441;57.164;-2.120;2023-06-24T06:07:14;0.95;;;0.57;;
22549;SDS011;11441;57.164;-2.120;2023-06-24T06:09:41;0.90;;;0.90;;
22549;SDS011;11441;57.164;-2.120;2023-06-24T06:12:25;0.80;;;0.80;;
22549;SDS011;11441;57.164;-2.120;2023-06-24T06:14:52;1.30;;;0.80;;
22549;SDS011;11441;57.164;-2.120;2023-06-24T06:17:19;1.25;;;0.82;;
22549;SDS011;11441;57.164;-2.120;2023-06-24T06:19:46;0.60;;;0.60;;
22549;SDS011;11441;57.164;-2.120;2023-06-24T06:22:16;0.80;;;0.80;;
22549;SDS011;11441;57.164;-2.120;2023-06-24T06:24:44;0.80;;;0.80;;
22549;SDS011;11441;57.164;-2.120;2023-06-24T06:27:29;0.88;;;0.88;;
22549;SDS011;11441;57.164;-2.120;2023-06-24T06:29:55;1.05;;;0.88;;
22549;SDS011;11441;57.164;-2.120;2023-06-24T06:32:22;0.60;;;0.60;;
22549;SDS011;11441;57.164;-2.120;2023-06-24T06:34:49;1.75;;;0.90;;
22549;SDS011;11441;57.164;-2.120;2023-06-24T06:37:16;0.75;;;0.75;;
22549;SDS011;11441;57.164;-2.120;2023-06-24T06:39:43;1.45;;;0.60;;
22549;SDS011;11441;57.164;-2.120;2023-06-24T06:42:10;0.82;;;0.82;;
22549;SDS011;11441;57.164;-2.120;2023-06-24T06:44:37;0.88;;;0.88;;
22549;SDS011;11441;57.164;-2.120;2023-06-24T06:47:04;0.60;;;0.60;;
22549;SDS011;11441;57.164;-2.120;2023-06-24T06:49:31;0.80;;;0.80;;
22549;SDS011;11441;57.164;-2.120;2023-06-24T06:51:58;0.60;;;0.60;;
22549;SDS011;11441;57.164;-2.120;2023-06-24T06:57:10;0.68;;;0.68;;
22549;SDS011;11441;57.164;-2.120;2023-06-24T06:59:37;1.75;;;0.60;;
22549;SDS011;11441;57.164;-2.120;2023-06-24T07:02:04;0.68;;;0.68;;
22549;SDS011;11441;57.164;-2.120;2023-06-24T07:04:31;0.47;;;0.47;;
22549;SDS011;11441;57.164;-2.120;2023-06-24T07:06:59;0.85;;;0.65;;
22549;SDS011;11441;57.164;-2.120;2023-06-24T07:09:26;0.77;;;0.73;;
22549;SDS011;11441;57.164;-2.120;2023-06-24T07:11:53;1.83;;;0.95;;
22549;SDS011;11441;57.164;-2.120;2023-06-24T07:14:20;0.50;;;0.50;;
22549;SDS011;11441;57.164;-2.120;2023-06-24T07:16:47;0.80;;;0.80;;
22549;SDS011;11441;57.164;-2.120;2023-06-24T07:19:13;0.60;;;0.50;;
22549;SDS011;11441;57.164;-2.120;2023-06-24T07:21:40;0.52;;;0.52;;
22549;SDS011;11441;57.164;-2.120;2023-06-24T07:24:07;0.80;;;0.80;;
22549;SDS011;11441;57.164;-2.120;2023-06-24T07:26:34;0.63;;;0.63;;
22549;SDS011;11441;57.164;-2.120;2023-06-24T07:29:01;0.60;;;0.60;;
22549;SDS011;11441;57.164;-2.120;2023-06-24T07:31:35;0.47;;;0.47;;
22549;SDS011;11441;57.164;-2.120;2023-06-24T07:34:03;0.88;;;0.60;;
22549;SDS011;11441;57.164;-2.120;2023-06-24T07:36:31;0.50;;;0.50;;
22549;SDS011;11441;57.164;-2.120;2023-06-24T07:38:58;0.63;;;0.60;;
22549;SDS011;11441;57.164;-2.120;2023-06-24T07:41:43;0.45;;;0.45;;
22549;SDS011;11441;57.164;-2.120;2023-06-24T07:44:10;0.40;;;0.40;;
22549;SDS011;11441;57.164;-2.120;2023-06-24T07:46:37;0.43;;;0.30;;
22549;SDS011;11441;57.164;-2.120;2023-06-24T07:49:04;0.40;;;0.40;;
22549;SDS011;11441;57.164;-2.120;2023-06-24T07:51:31;0.30;;;0.30;;
22549;SDS011;11441;57.164;-2.120;2023-06-24T07:53:58;0.40;;;0.40;;
22549;SDS011;11441;57.164;-2.120;2023-06-24T07:56:25;0.50;;;0.40;;
22549;SDS011;11441;57.164;-2.120;2023-06-24T07:58:52;0.25;;;0.25;;
22549;SDS011;11441;57.164;-2.120;2023-06-24T08:01:19;0.73;;;0.40;;
22549;SDS011;11441;57.164;-2.120;2023-06-24T08:03:46;0.60;;;0.60;;
22549;SDS011;11441;57.164;-2.120;2023-06-24T08:06:13;0.40;;;0.40;;
22549;SDS011;11441;57.164;-2.120;2023-06-24T08:08:40;0.57;;;0.40;;
22549;SDS011;11441;57.164;-2.120;2023-06-24T08:11:07;2.72;;;2.60;;
22549;SDS011;11441;57.164;-2.120;2023-06-24T08:13:52;0.85;;;0.80;;
22549;SDS011;11441;57.164;-2.120;2023-06-24T08:16:36;1.00;;;0.68;;
22549;SDS011;11441;57.164;-2.120;2023-06-24T08:19:03;1.80;;;0.57;;
22549;SDS011;11441;57.164;-2.120;2023-06-24T08:24:35;0.60;;;0.60;;
22549;SDS011;11441;57.164;-2.120;2023-06-24T08:27:03;4.40;;;1.30;;
22549;SDS011;11441;57.164;-2.120;2023-06-24T08:29:30;3.00;;;1.40;;
22549;SDS011;11441;57.164;-2.120;2023-06-24T08:31:57;2.20;;;1.23;;
22549;SDS011;11441;57.164;-2.120;2023-06-24T08:34:24;1.55;;;1.17;;
22549;SDS011;11441;57.164;-2.120;2023-06-24T08:36:52;1.95;;;1.50;;
22549;SDS011;11441;57.164;-2.120;2023-06-24T08:39:19;1.20;;;1.00;;
22549;SDS011;11441;57.164;-2.120;2023-06-24T08:41:46;2.08;;;1.23;;
22549;SDS011;11441;57.164;-2.120;2023-06-24T08:44:13;1.33;;;1.23;;
22549;SDS011;11441;57.164;-2.120;2023-06-24T08:46:40;3.10;;;1.80;;
22549;SDS011;11441;57.164;-2.120;2023-06-24T08:49:17;1.50;;;1.40;;
22549;SDS011;11441;57.164;-2.120;2023-06-24T08:52:00;5.95;;;1.75;;
22549;SDS011;11441;57.164;-2.120;2023-06-24T08:54:30;2.50;;;1.50;;
22549;SDS011;11441;57.164;-2.120;2023-06-24T08:57:00;5.90;;;1.40;;
22549;SDS011;11441;57.164;-2.120;2023-06-24T08:59:47;3.90;;;1.77;;
22549;SDS011;11441;57.164;-2.120;2023-06-24T09:02:14;4.57;;;2.13;;
22549;SDS011;11441;57.164;-2.120;2023-06-24T09:04:41;1.92;;;1.75;;
22549;SDS011;11441;57.164;-2.120;2023-06-24T09:07:08;3.75;;;1.52;;
22549;SDS011;11441;57.164;-2.120;2023-06-24T09:09:42;1.92;;;1.83;;
22549;SDS011;11441;57.164;-2.120;2023-06-24T09:12:13;3.30;;;2.05;;
22549;SDS011;11441;57.164;-2.120;2023-06-24T09:14:42;2.47;;;1.35;;
22549;SDS011;11441;57.164;-2.120;2023-06-24T09:17:14;4.60;;;1.42;;
22549;SDS011;11441;57.164;-2.120;2023-06-24T09:19:42;4.55;;;1.70;;
22549;SDS011;11441;57.164;-2.120;2023-06-24T09:22:09;3.35;;;1.88;;
22549;SDS011;11441;57.164;-2.120;2023-06-24T09:24:55;4.88;;;1.48;;
22549;SDS011;11441;57.164;-2.120;2023-06-24T09:27:22;1.80;;;1.60;;
22549;SDS011;11441;57.164;-2.120;2023-06-24T09:29:50;1.55;;;1.45;;
22549;SDS011;11441;57.164;-2.120;2023-06-24T09:32:36;4.53;;;1.63;;
22549;SDS011;11441;57.164;-2.120;2023-06-24T09:35:03;3.85;;;2.08;;
22549;SDS011;11441;57.164;-2.120;2023-06-24T09:37:30;3.17;;;1.77;;
22549;SDS011;11441;57.164;-2.120;2023-06-24T09:40:19;3.75;;;1.15;;
22549;SDS011;11441;57.164;-2.120;2023-06-24T09:42:50;3.17;;;1.13;;
22549;SDS011;11441;57.164;-2.120;2023-06-24T09:45:40;1.83;;;1.10;;
22549;SDS011;11441;57.164;-2.120;2023-06-24T09:48:07;1.00;;;1.00;;
22549;SDS011;11441;57.164;-2.120;2023-06-24T09:50:34;1.05;;;1.05;;
22549;SDS011;11441;57.164;-2.120;2023-06-24T09:53:01;0.98;;;0.98;;
22549;SDS011;11441;57.164;-2.120;2023-06-24T09:55:30;1.23;;;1.13;;
22549;SDS011;11441;57.164;-2.120;2023-06-24T09:57:57;1.13;;;1.02;;
22549;SDS011;11441;57.164;-2.120;2023-06-24T10:00:24;2.17;;;1.10;;
22549;SDS011;11441;57.164;-2.120;2023-06-24T10:05:38;1.13;;;1.02;;
22549;SDS011;11441;57.164;-2.120;2023-06-24T10:08:07;1.08;;;1.08;;
22549;SDS011;11441;57.164;-2.120;2023-06-24T10:10:35;1.10;;;0.80;;
22549;SDS011;11441;57.164;-2.120;2023-06-24T10:13:02;1.95;;;1.25;;
22549;SDS011;11441;57.164;-2.120;2023-06-24T10:15:29;0.70;;;0.70;;
22549;SDS011;11441;57.164;-2.120;2023-06-24T10:18:00;0.80;;;0.80;;
22549;SDS011;11441;57.164;-2.120;2023-06-24T10:20:36;0.60;;;0.60;;
22549;SDS011;11441;57.164;-2.120;2023-06-24T10:23:07;0.98;;;0.70;;
22549;SDS011;11441;57.164;-2.120;2023-06-24T10:25:37;1.98;;;0.98;;
22549;SDS011;11441;57.164;-2.120;2023-06-24T10:28:04;0.93;;;0.82;;
22549;SDS011;11441;57.164;-2.120;2023-06-24T10:30:31;0.68;;;0.68;;
22549;SDS011;11441;57.164;-2.120;2023-06-24T10:33:00;0.73;;;0.60;;
22549;SDS011;11441;57.164;-2.120;2023-06-24T10:35:27;1.08;;;0.60;;
22549;SDS011;11441;57.164;-2.120;2023-06-24T10:37:59;0.80;;;0.70;;
22549;SDS011;11441;57.164;-2.120;2023-06-24T10:40:34;1.08;;;0.98;;
22549;SDS011;11441;57.164;-2.120;2023-06-24T10:43:24;1.15;;;0.65;;
22549;SDS011;11441;57.164;-2.120;2023-06-24T10:45:57;1.05;;;0.50;;
22549;SDS011;11441;57.164;-2.120;2023-06-24T10:48:27;0.60;;;0.60;;
22549;SDS011;11441;57.164;-2.120;2023-06-24T10:50:54;0.73;;;0.73;;
22549;SDS011;11441;57.164;-2.120;2023-06-24T10:53:21;0.63;;;0.63;;
22549;SDS011;11441;57.164;-2.120;2023-06-24T10:55:49;2.72;;;0.88;;
22549;SDS011;11441;57.164;-2.120;2023-06-24T10:58:16;0.93;;;0.82;;
22549;SDS011;11441;57.164;-2.120;2023-06-24T11:00:43;0.70;;;0.70;;
22549;SDS011;11441;57.164;-2.120;2023-06-24T11:03:14;0.82;;;0.82;;
22549;SDS011;11441;57.164;-2.120;2023-06-24T11:05:43;1.00;;;0.90;;
22549;SDS011;11441;57.164;-2.120;2023-06-24T11:08:12;0.70;;;0.70;;
22549;SDS011;11441;57.164;-2.120;2023-06-24T11:10:45;0.98;;;0.82;;
22549;SDS011;11441;57.164;-2.120;2023-06-24T11:13:13;0.95;;;0.90;;
22549;SDS011;11441;57.164;-2.120;2023-06-24T11:15:59;0.68;;;0.68;;
22549;SDS011;11441;57.164;-2.120;2023-06-24T11:18:27;1.65;;;0.70;;
22549;SDS011;11441;57.164;-2.120;2023-06-24T11:21:04;2.10;;;1.20;;
22549;SDS011;11441;57.164;-2.120;2023-06-24T11:23:36;1.60;;;1.30;;
22549;SDS011;11441;57.164;-2.120;2023-06-24T11:26:03;0.90;;;0.85;;
22549;SDS011;11441;57.164;-2.120;2023-06-24T11:28:31;1.30;;;1.10;;
22549;SDS011;11441;57.164;-2.120;2023-06-24T11:31:08;1.00;;;0.90;;
22549;SDS011;11441;57.164;-2.120;2023-06-24T11:33:36;0.93;;;0.93;;
22549;SDS011;11441;57.164;-2.120;2023-06-24T11:36:08;1.80;;;1.70;;
22549;SDS011;11441;57.164;-2.120;2023-06-24T11:38:36;2.10;;;0.70;;
22549;SDS011;11441;57.164;-2.120;2023-06-24T11:41:03;0.80;;;0.80;;
22549;SDS011;11441;57.164;-2.120;2023-06-24T11:43:30;2.15;;;0.65;;
22549;SDS011;11441;57.164;-2.120;2023-06-24T11:45:57;1.50;;;1.20;;
22549;SDS011;11441;57.164;-2.120;2023-06-24T11:48:30;3.03;;;1.38;;
22549;SDS011;11441;57.164;-2.120;2023-06-24T11:50:58;2.45;;;1.45;;
22549;SDS011;11441;57.164;-2.120;2023-06-24T11:56:12;1.20;;;1.10;;
22549;SDS011;11441;57.164;-2.120;2023-06-24T11:58:39;1.33;;;1.20;;
22549;SDS011;11441;57.164;-2.120;2023-06-24T12:01:06;1.10;;;0.93;;
22549;SDS011;11441;57.164;-2.120;2023-06-24T12:03:34;1.40;;;1.30;;
22549;SDS011;11441;57.164;-2.120;2023-06-24T12:06:01;1.27;;;0.95;;
22549;SDS011;11441;57.164;-2.120;2023-06-24T12:08:28;1.48;;;1.00;;
22549;SDS011;11441;57.164;-2.120;2023-06-24T12:11:15;1.42;;;1.33;;
22549;SDS011;11441;57.164;-2.120;2023-06-24T12:13:42;2.10;;;1.55;;
22549;SDS011;11441;57.164;-2.120;2023-06-24T12:16:09;1.42;;;1.23;;
22549;SDS011;11441;57.164;-2.120;2023-06-24T12:18:36;1.20;;;1.10;;
22549;SDS011;11441;57.164;-2.120;2023-06-24T12:21:03;1.77;;;1.38;;
22549;SDS011;11441;57.164;-2.120;2023-06-24T12:23:30;1.98;;;1.00;;
22549;SDS011;11441;57.164;-2.120;2023-06-24T12:25:56;1.25;;;1.00;;
22549;SDS011;11441;57.164;-2.120;2023-06-24T12:28:23;1.90;;;1.58;;
22549;SDS011;11441;57.164;-2.120;2023-06-24T12:30:50;1.77;;;1.05;;
22549;SDS011;11441;57.164;-2.120;2023-06-24T12:33:17;1.13;;;1.13;;
22549;SDS011;11441;57.164;-2.120;2023-06-24T12:35:46;1.00;;;1.00;;
22549;SDS011;11441;57.164;-2.120;2023-06-24T12:38:13;1.55;;;1.05;;
22549;SDS011;11441;57.164;-2.120;2023-06-24T12:40:40;0.82;;;0.82;;
22549;SDS011;11441;57.164;-2.120;2023-06-24T12:43:07;1.15;;;1.00;;
22549;SDS011;11441;57.164;-2.120;2023-06-24T12:45:33;2.03;;;1.20;;
22549;SDS011;11441;57.164;-2.120;2023-06-24T12:48:00;1.00;;;0.82;;
22549;SDS011;11441;57.164;-2.120;2023-06-24T12:50:27;1.83;;;0.70;;
22549;SDS011;11441;57.164;-2.120;2023-06-24T12:52:54;2.17;;;1.00;;
22549;SDS011;11441;57.164;-2.120;2023-06-24T12:55:21;2.63;;;0.90;;
22549;SDS011;11441;57.164;-2.120;2023-06-24T12:57:48;0.57;;;0.57;;
22549;SDS011;11441;57.164;-2.120;2023-06-24T13:00:15;1.60;;;0.60;;
22549;SDS011;11441;57.164;-2.120;2023-06-24T13:02:47;0.68;;;0.68;;
22549;SDS011;11441;57.164;-2.120;2023-06-24T13:05:15;0.70;;;0.70;;
22549;SDS011;11441;57.164;-2.120;2023-06-24T13:07:42;0.73;;;0.73;;
22549;SDS011;11441;57.164;-2.120;2023-06-24T13:10:09;1.17;;;1.10;;
22549;SDS011;11441;57.164;-2.120;2023-06-24T13:12:36;0.70;;;0.70;;
22549;SDS011;11441;57.164;-2.120;2023-06-24T13:15:05;1.85;;;0.82;;
22549;SDS011;11441;57.164;-2.120;2023-06-24T13:17:32;1.05;;;0.73;;
22549;SDS011;11441;57.164;-2.120;2023-06-24T13:19:59;1.10;;;1.00;;
22549;SDS011;11441;57.164;-2.120;2023-06-24T13:22:28;0.60;;;0.60;;
22549;SDS011;11441;57.164;-2.120;2023-06-24T13:24:55;1.77;;;0.63;;
22549;SDS011;11441;57.164;-2.120;2023-06-24T13:27:21;1.17;;;1.00;;
22549;SDS011;11441;57.164;-2.120;2023-06-24T13:29:48;1.88;;;0.90;;
22549;SDS011;11441;57.164;-2.120;2023-06-24T13:32:15;1.60;;;0.70;;
22549;SDS011;11441;57.164;-2.120;2023-06-24T13:34:42;1.48;;;0.68;;
22549;SDS011;11441;57.164;-2.120;2023-06-24T13:37:09;0.85;;;0.77;;
22549;SDS011;11441;57.164;-2.120;2023-06-24T13:39:36;1.10;;;0.70;;
22549;SDS011;11441;57.164;-2.120;2023-06-24T13:42:03;1.10;;;0.63;;
22549;SDS011;11441;57.164;-2.120;2023-06-24T13:44:30;1.55;;;0.60;;
22549;SDS011;11441;57.164;-2.120;2023-06-24T13:46:57;1.23;;;0.60;;
22549;SDS011;11441;57.164;-2.120;2023-06-24T13:49:24;0.93;;;0.60;;
22549;SDS011;11441;57.164;-2.120;2023-06-24T13:51:52;0.80;;;0.68;;
22549;SDS011;11441;57.164;-2.120;2023-06-24T13:54:19;1.20;;;0.70;;
22549;SDS011;11441;57.164;-2.120;2023-06-24T13:56:45;0.80;;;0.80;;
22549;SDS011;11441;57.164;-2.120;2023-06-24T13:59:13;2.47;;;1.02;;
22549;SDS011;11441;57.164;-2.120;2023-06-24T14:01:40;1.60;;;0.90;;
22549;SDS011;11441;57.164;-2.120;2023-06-24T14:04:07;1.45;;;0.75;;
22549;SDS011;11441;57.164;-2.120;2023-06-24T14:06:34;1.20;;;0.68;;
22549;SDS011;11441;57.164;-2.120;2023-06-24T14:09:01;1.45;;;0.85;;
22549;SDS011;11441;57.164;-2.120;2023-06-24T14:11:27;2.50;;;0.80;;
22549;SDS011;11441;57.164;-2.120;2023-06-24T14:13:54;2.35;;;0.70;;
22549;SDS011;11441;57.164;-2.120;2023-06-24T14:16:21;2.22;;;0.80;;
22549;SDS011;11441;57.164;-2.120;2023-06-24T14:18:48;3.53;;;0.77;;
22549;SDS011;11441;57.164;-2.120;2023-06-24T14:21:16;0.68;;;0.68;;
22549;SDS011;11441;57.164;-2.120;2023-06-24T14:23:43;0.70;;;0.63;;
22549;SDS011;11441;57.164;-2.120;2023-06-24T14:26:10;0.80;;;0.80;;
22549;SDS011;11441;57.164;-2.120;2023-06-24T14:28:37;2.63;;;0.80;;
22549;SDS011;11441;57.164;-2.120;2023-06-24T14:31:04;1.17;;;0.50;;
22549;SDS011;11441;57.164;-2.120;2023-06-24T14:33:31;1.00;;;0.60;;
22549;SDS011;11441;57.164;-2.120;2023-06-24T14:35:58;2.95;;;0.60;;
22549;SDS011;11441;57.164;-2.120;2023-06-24T14:38:42;0.73;;;0.60;;
22549;SDS011;11441;57.164;-2.120;2023-06-24T14:41:10;1.13;;;0.68;;
22549;SDS011;11441;57.164;-2.120;2023-06-24T14:43:56;1.38;;;0.82;;
22549;SDS011;11441;57.164;-2.120;2023-06-24T14:46:23;2.05;;;1.05;;
22549;SDS011;11441;57.164;-2.120;2023-06-24T14:48:50;0.88;;;0.50;;
22549;SDS011;11441;57.164;-2.120;2023-06-24T14:51:17;0.57;;;0.32;;
22549;SDS011;11441;57.164;-2.120;2023-06-24T14:53:43;0.20;;;0.20;;
22549;SDS011;11441;57.164;-2.120;2023-06-24T14:56:10;0.20;;;0.20;;
22549;SDS011;11441;57.164;-2.120;2023-06-24T14:58:37;0.35;;;0.28;;
22549;SDS011;11441;57.164;-2.120;2023-06-24T15:01:04;0.95;;;0.22;;
22549;SDS011;11441;57.164;-2.120;2023-06-24T15:03:31;0.40;;;0.20;;
22549;SDS011;11441;57.164;-2.120;2023-06-24T15:05:58;0.93;;;0.40;;
22549;SDS011;11441;57.164;-2.120;2023-06-24T15:08:25;1.65;;;0.30;;